createdAt,value
2022-08-26T00:02:34.773Z,98279.64
2022-08-26T00:09:57.454Z,98273.07
2022-08-26T00:12:35.932Z,98269.09
2022-08-26T00:15:58.789Z,98268.88
2022-08-26T00:18:38.836Z,98266.83
2022-08-26T00:22:02.984Z,98267.46
2022-08-26T00:24:41.417Z,98265.15
2022-08-26T00:28:10.297Z,98265.15
2022-08-26T00:30:51.589Z,98263.98
2022-08-26T00:38:58.638Z,98268.66
2022-08-26T00:41:31.563Z,98269.66
2022-08-26T00:44:04.080Z,98267.30
2022-08-26T00:51:10.139Z,98271.14
2022-08-26T01:02:30.262Z,98277.85
2022-08-26T01:05:12.232Z,98275.84
2022-08-26T01:48:39.175Z,98269.98
2022-08-26T01:55:34.547Z,98272.08
2022-08-26T02:03:23.312Z,98269.78
2022-08-26T02:05:57.743Z,98265.36
2022-08-26T02:09:21.891Z,98262.84
2022-08-26T02:15:56.527Z,98266.16
2022-08-26T02:18:31.556Z,98260.58
2022-08-26T02:29:52.175Z,98255.95
2022-08-26T02:33:17.517Z,98256.71
2022-08-26T02:35:51.331Z,98252.36
2022-08-26T02:38:23.564Z,98255.49
2022-08-26T02:45:47.217Z,98251.41
2022-08-26T02:48:25.903Z,98249.05
2022-08-26T02:55:50.084Z,98250.71
2022-08-26T02:58:22.967Z,98251.33
2022-08-26T03:01:02.136Z,98251.09
2022-08-26T03:04:57.520Z,98247.10
2022-08-26T03:08:36.346Z,98252.02
2022-08-26T03:11:11.057Z,98247.14
2022-08-26T03:13:45.092Z,98247.10
2022-08-26T03:16:23.572Z,98248.56
2022-08-26T03:18:55.876Z,98242.89
2022-08-26T03:21:35.512Z,98245.82
2022-08-26T03:24:11.113Z,98241.81
2022-08-26T03:27:47.844Z,98242.05
2022-08-26T03:34:23.705Z,98243.84
2022-08-26T03:37:30.271Z,98237.03
2022-08-26T03:40:50.467Z,98236.76
2022-08-26T03:48:15.663Z,98234.23
2022-08-26T03:55:24.886Z,98226.99
2022-08-26T03:58:46.578Z,98223.23
2022-08-26T04:01:21.656Z,98221.80
2022-08-26T04:04:42.564Z,98220.83
2022-08-26T04:07:21.820Z,98224.13
2022-08-26T04:14:45.794Z,98223.17
2022-08-26T04:18:05.353Z,98225.91
2022-08-26T04:20:39.266Z,98226.17
2022-08-26T04:24:03.592Z,98226.58
2022-08-26T04:27:25.600Z,98225.08
2022-08-26T04:30:05.385Z,98223.89
2022-08-26T04:42:03.690Z,98229.15
2022-08-26T04:44:42.799Z,98226.46
2022-08-26T04:47:15.205Z,98223.21
2022-08-26T04:53:57.509Z,98221.45
2022-08-26T04:57:45.162Z,98223.04
2022-08-26T05:00:34.070Z,98221.20
2022-08-26T05:03:07.682Z,98218.46
2022-08-26T05:06:43.726Z,98221.91
2022-08-26T05:09:18.552Z,98223.05
2022-08-26T05:11:52.057Z,98226.50
2022-08-26T05:14:24.982Z,98224.10
2022-08-26T05:16:57.468Z,98225.15
2022-08-26T05:19:29.762Z,98226.73
2022-08-26T05:22:02.359Z,98223.48
2022-08-26T05:24:36.395Z,98224.88
2022-08-26T05:27:11.637Z,98228.15
2022-08-26T05:29:44.395Z,98229.03
2022-08-26T05:32:17.063Z,98227.73
2022-08-26T05:34:49.341Z,98228.08
2022-08-26T05:37:25.071Z,98233.40
2022-08-26T05:39:57.615Z,98228.04
2022-08-26T05:42:30.286Z,98228.83
2022-08-26T05:45:03.279Z,98231.06
2022-08-26T05:47:35.644Z,98225.51
2022-08-26T05:50:09.492Z,98226.54
2022-08-26T05:52:41.672Z,98223.20
2022-08-26T05:55:14.026Z,98225.66
2022-08-26T05:57:46.593Z,98222.92
2022-08-26T06:00:21.061Z,98220.70
2022-08-26T06:02:53.501Z,98220.84
2022-08-26T06:05:26.765Z,98213.96
2022-08-26T06:08:14.237Z,98211.70
2022-08-26T06:10:52.637Z,98210.90
2022-08-26T06:13:26.864Z,98205.65
2022-08-26T06:16:00.347Z,98205.61
2022-08-26T06:18:36.521Z,98206.16
2022-08-26T06:21:18.271Z,98205.68
2022-08-26T06:24:10.309Z,98204.20
2022-08-26T06:26:44.051Z,98207.19
2022-08-26T06:29:24.290Z,98210.35
2022-08-26T06:31:58.208Z,98208.85
2022-08-26T06:34:31.031Z,98210.74
2022-08-26T06:37:06.318Z,98216.27
2022-08-26T06:39:40.255Z,98215.31
2022-08-26T06:42:13.726Z,98217.68
2022-08-26T06:44:47.533Z,98218.60
2022-08-26T06:47:20.492Z,98223.61
2022-08-26T06:49:53.132Z,98219.08
2022-08-26T06:52:27.809Z,98221.34
2022-08-26T06:55:01.476Z,98212.84
2022-08-26T06:57:37.653Z,98214.24
2022-08-26T07:00:15.461Z,98212.86
2022-08-26T07:02:48.066Z,98215.40
2022-08-26T07:05:21.117Z,98214.95
2022-08-26T07:07:53.690Z,98212.45
2022-08-26T07:10:26.641Z,98217.30
2022-08-26T07:12:58.867Z,98220.46
2022-08-26T07:15:31.662Z,98219.50
2022-08-26T07:18:09.218Z,98219.52
2022-08-26T07:20:43.000Z,98221.27
2022-08-26T07:23:24.179Z,98221.73
2022-08-26T07:25:57.577Z,98223.55
2022-08-26T07:28:33.426Z,98224.17
2022-08-26T07:31:09.821Z,98225.90
2022-08-26T07:33:48.603Z,98224.03
2022-08-26T07:36:23.157Z,98215.88
2022-08-26T07:38:56.424Z,98216.89
2022-08-26T07:41:32.316Z,98219.25
2022-08-26T07:44:05.335Z,98217.73
2022-08-26T07:46:38.169Z,98216.17
2022-08-26T07:49:11.637Z,98214.54
2022-08-26T07:51:46.776Z,98218.64
2022-08-26T07:54:19.892Z,98217.05
2022-08-26T07:56:52.675Z,98222.00
2022-08-26T07:59:27.853Z,98219.58
2022-08-26T08:02:01.452Z,98221.34
2022-08-26T08:04:34.646Z,98217.09
2022-08-26T08:07:11.610Z,98217.55
2022-08-26T08:09:50.427Z,98210.98
2022-08-26T08:12:23.292Z,98204.63
2022-08-26T08:14:58.627Z,98208.96
2022-08-26T08:17:34.585Z,98201.48
2022-08-26T08:20:09.381Z,98200.98
2022-08-26T08:22:42.540Z,98196.98
2022-08-26T08:25:20.045Z,98192.17
2022-08-26T08:27:52.439Z,98193.19
2022-08-26T08:30:25.592Z,98193.30
2022-08-26T08:32:58.695Z,98198.58
2022-08-26T08:35:34.688Z,98191.85
2022-08-26T08:38:08.203Z,98172.85
2022-08-26T08:41:50.682Z,98178.59
2022-08-26T08:47:12.405Z,98165.60
2022-08-26T08:49:49.692Z,98166.30
2022-08-26T08:52:30.466Z,98162.09
2022-08-26T08:55:04.328Z,98168.10
2022-08-26T08:58:02.231Z,98154.19
2022-08-26T09:00:47.774Z,98154.40
2022-08-26T09:03:38.009Z,98156.11
2022-08-26T09:06:17.469Z,98154.15
2022-08-26T09:08:52.001Z,98144.80
2022-08-26T09:11:24.377Z,98142.59
2022-08-26T09:13:57.855Z,98140.70
2022-08-26T09:16:44.125Z,98133.77
2022-08-26T09:19:28.761Z,98128.31
2022-08-26T09:22:08.722Z,98125.55
2022-08-26T09:24:48.456Z,98126.48
2022-08-26T09:27:40.020Z,98124.89
2022-08-26T09:30:19.995Z,98120.88
2022-08-26T09:33:10.837Z,98123.83
2022-08-26T09:35:48.675Z,98121.66
2022-08-26T09:38:42.184Z,98119.84
2022-08-26T09:41:33.354Z,98119.02
2022-08-26T09:44:17.856Z,98124.20
2022-08-26T09:46:59.347Z,98116.96
2022-08-26T09:49:36.584Z,98105.70
2022-08-26T09:52:14.741Z,98096.70
2022-08-26T09:54:59.566Z,98092.58
2022-08-26T09:57:34.376Z,98084.14
2022-08-26T10:00:29.143Z,98094.67
2022-08-26T10:03:02.794Z,98087.46
2022-08-26T10:05:47.822Z,98086.62
2022-08-26T10:08:31.043Z,98081.85
2022-08-26T10:11:29.490Z,98091.20
2022-08-26T10:14:08.972Z,98089.68
2022-08-26T10:16:48.510Z,98089.36
2022-08-26T10:19:29.163Z,98085.45
2022-08-26T10:22:20.246Z,98086.10
2022-08-26T10:24:57.696Z,98081.48
2022-08-26T10:27:37.846Z,98079.32
2022-08-26T10:30:16.518Z,98069.51
2022-08-26T10:32:54.495Z,98059.27
2022-08-26T10:35:27.632Z,98063.35
2022-08-26T10:38:05.681Z,98070.46
2022-08-26T10:40:49.081Z,98065.04
2022-08-26T10:43:26.033Z,98059.04
2022-08-26T10:46:04.585Z,98052.21
2022-08-26T10:48:44.855Z,98057.73
2022-08-26T10:51:21.161Z,98058.31
2022-08-26T10:54:04.958Z,98038.92
2022-08-26T10:56:47.497Z,98041.16
2022-08-26T10:59:31.838Z,98043.38
2022-08-26T11:02:13.873Z,98032.61
2022-08-26T11:04:52.456Z,98031.98
2022-08-26T11:07:41.881Z,98020.81
2022-08-26T11:10:58.891Z,98021.28
2022-08-26T11:14:04.143Z,98020.75
2022-08-26T11:16:43.367Z,98006.55
2022-08-26T11:20:09.524Z,97999.77
2022-08-26T11:22:47.839Z,97997.21
2022-08-26T11:25:22.839Z,97985.94
2022-08-26T11:28:00.904Z,97996.52
2022-08-26T11:30:57.895Z,97991.07
2022-08-26T11:34:01.465Z,97993.10
2022-08-26T11:36:42.839Z,97986.52
2022-08-26T11:39:29.451Z,97981.29
2022-08-26T11:42:15.402Z,97980.52
2022-08-26T11:44:53.175Z,97987.59
2022-08-26T11:47:33.042Z,97985.63
2022-08-26T11:50:23.359Z,97967.66
2022-08-26T11:53:06.362Z,97961.04
2022-08-26T11:55:45.370Z,97962.23
2022-08-26T11:58:20.713Z,97968.64
2022-08-26T12:01:01.680Z,97965.53
2022-08-26T12:03:42.904Z,97964.81
2022-08-26T12:06:24.128Z,97963.73
2022-08-26T12:09:00.314Z,97955.17
2022-08-26T12:11:34.629Z,97951.16
2022-08-26T12:14:09.830Z,97948.36
2022-08-26T12:16:43.505Z,97945.98
2022-08-26T12:19:32.709Z,97947.50
2022-08-26T12:22:08.644Z,97944.54
2022-08-26T12:24:48.640Z,97935.64
2022-08-26T12:27:25.487Z,97909.52
2022-08-26T12:30:14.194Z,97912.77
2022-08-26T12:32:50.984Z,97918.27
2022-08-26T12:35:32.139Z,97928.58
2022-08-26T12:38:05.209Z,97907.35
2022-08-26T12:40:44.621Z,97908.66
2022-08-26T12:43:41.510Z,97895.58
2022-08-26T12:46:17.861Z,97894.63
2022-08-26T12:48:53.426Z,97884.56
2022-08-26T12:51:31.251Z,97885.02
2022-08-26T12:54:07.305Z,97886.29
2022-08-26T12:56:40.952Z,97863.78
2022-08-26T12:59:25.198Z,97865.61
2022-08-26T13:01:57.695Z,97849.07
2022-08-26T13:04:39.111Z,97851.42
2022-08-26T13:07:26.675Z,97853.31
2022-08-26T13:10:01.069Z,97853.73
2022-08-26T13:16:47.522Z,97821.42
2022-08-26T13:24:18.067Z,97818.73
2022-08-26T13:32:46.233Z,97816.46
2022-08-26T13:35:25.349Z,97809.95
2022-08-26T13:38:33.438Z,97810.11
2022-08-26T13:41:06.636Z,97808.80
2022-08-26T13:48:22.861Z,97811.86
2022-08-26T13:51:20.489Z,97813.25
2022-08-26T13:53:53.461Z,97816.45
2022-08-26T13:56:29.728Z,97812.20
2022-08-26T13:59:03.331Z,97813.67
2022-08-26T14:01:38.230Z,97809.61
2022-08-26T14:04:10.650Z,97809.88
2022-08-26T14:06:42.894Z,97792.63
2022-08-26T14:09:15.261Z,97795.63
2022-08-26T14:11:53.930Z,97791.30
2022-08-26T14:14:26.968Z,97788.80
2022-08-26T14:17:00.557Z,97790.87
2022-08-26T14:19:33.510Z,97800.38
2022-08-26T14:22:06.852Z,97803.85
2022-08-26T14:24:39.217Z,97789.20
2022-08-26T14:27:11.399Z,97794.83
2022-08-26T14:29:43.861Z,97789.56
2022-08-26T14:32:25.395Z,97790.60
2022-08-26T14:34:58.961Z,97794.48
2022-08-26T14:37:31.622Z,97793.38
2022-08-26T14:40:06.016Z,97791.20
2022-08-26T14:42:41.344Z,97774.45
2022-08-26T14:45:17.944Z,97784.52
2022-08-26T14:47:51.841Z,97784.04
2022-08-26T14:50:26.643Z,97797.38
2022-08-26T14:53:16.785Z,97794.64
2022-08-26T14:55:50.565Z,97784.21
2022-08-26T14:58:25.001Z,97788.02
2022-08-26T15:01:21.081Z,97785.92
2022-08-26T15:03:53.813Z,97782.56
2022-08-26T15:06:31.880Z,97779.23
2022-08-26T15:09:06.510Z,97790.41
2022-08-26T15:11:39.034Z,97804.38
2022-08-26T15:14:18.876Z,97814.80
2022-08-26T15:16:55.918Z,97804.58
2022-08-26T15:19:29.340Z,97801.27
2022-08-26T15:22:01.603Z,97796.94
2022-08-26T15:24:33.801Z,97796.31
2022-08-26T15:27:06.428Z,97794.91
2022-08-26T15:29:41.609Z,97796.19
2022-08-26T15:32:16.312Z,97795.35
2022-08-26T15:34:50.028Z,97797.29
2022-08-26T15:37:22.219Z,97800.54
2022-08-26T15:39:56.770Z,97801.86
2022-08-26T15:42:29.401Z,97799.63
2022-08-26T15:45:01.641Z,97804.52
2022-08-26T15:47:38.114Z,97807.60
2022-08-26T15:50:26.375Z,97805.56
2022-08-26T15:52:59.778Z,97812.71
2022-08-26T15:55:31.975Z,97808.95
2022-08-26T15:58:38.083Z,97801.80
2022-08-26T16:01:10.647Z,97802.78
2022-08-26T16:03:45.355Z,97807.27
2022-08-26T16:06:22.507Z,97810.44
2022-08-26T16:08:55.653Z,97820.02
2022-08-26T16:11:31.919Z,97823.05
2022-08-26T16:14:04.696Z,97830.89
2022-08-26T16:16:43.364Z,97834.10
2022-08-26T16:19:15.887Z,97845.06
2022-08-26T16:21:51.485Z,97851.08
2022-08-26T16:24:29.742Z,97848.32
2022-08-26T16:27:03.520Z,97855.97
2022-08-26T16:29:35.801Z,97857.56
2022-08-26T16:32:08.835Z,97863.54
2022-08-26T16:34:46.967Z,97873.48
2022-08-26T16:37:29.128Z,97879.58
2022-08-26T16:40:01.770Z,97889.81
2022-08-26T16:42:34.484Z,97891.17
2022-08-26T16:45:07.714Z,97894.32
2022-08-26T16:47:40.046Z,97899.50
2022-08-26T16:50:13.221Z,97901.55
2022-08-26T16:52:51.571Z,97908.99
2022-08-26T16:55:28.303Z,97919.69
2022-08-26T16:58:00.643Z,97926.66
2022-08-26T17:05:27.040Z,97933.69
2022-08-26T17:08:07.240Z,97931.38
2022-08-26T17:10:38.509Z,97931.12
2022-08-26T17:13:35.181Z,97939.14
2022-08-26T17:16:10.811Z,97938.17
2022-08-26T17:19:32.778Z,97936.55
2022-08-26T17:22:20.980Z,97938.52
2022-08-26T17:24:53.544Z,97935.07
2022-08-26T17:27:31.904Z,97937.50
2022-08-26T17:30:07.162Z,97936.77
2022-08-26T17:33:39.215Z,97933.48
2022-08-26T17:36:53.402Z,97933.20
2022-08-26T17:39:26.673Z,97933.56
2022-08-26T17:43:12.424Z,97930.27
2022-08-26T17:45:45.443Z,97931.73
2022-08-26T17:53:08.061Z,97941.30
2022-08-26T17:55:45.223Z,97937.48
2022-08-26T18:03:08.781Z,97934.93
2022-08-26T18:10:14.070Z,97931.12
2022-08-26T18:13:36.389Z,97923.64
2022-08-26T18:21:01.520Z,97916.85
2022-08-26T18:24:41.634Z,97923.63
2022-08-26T18:28:26.679Z,97931.41
2022-08-26T18:30:59.024Z,97932.59
2022-08-26T18:33:31.472Z,97932.41
2022-08-26T18:36:05.874Z,97932.15
2022-08-26T18:39:03.523Z,97934.31
2022-08-26T18:45:20.850Z,97932.47
2022-08-26T18:48:51.013Z,97940.52
2022-08-26T18:51:25.305Z,97944.16
2022-08-26T18:53:58.609Z,97946.52
2022-08-26T18:56:32.766Z,97947.99
2022-08-26T18:59:07.908Z,97948.91
2022-08-26T19:02:39.814Z,97945.51
2022-08-26T19:05:53.744Z,97940.80
2022-08-26T19:08:26.336Z,97939.11
2022-08-26T19:11:00.360Z,97936.70
2022-08-26T19:14:28.135Z,97938.34
2022-08-26T19:17:01.609Z,97938.39
2022-08-26T19:19:34.458Z,97937.73
2022-08-26T19:22:07.609Z,97940.63
2022-08-26T19:24:46.825Z,97941.25
2022-08-26T19:27:19.316Z,97942.99
2022-08-26T19:29:51.523Z,97944.33
2022-08-26T19:32:24.475Z,97941.75
2022-08-26T19:34:57.387Z,97941.69
2022-08-26T19:37:57.193Z,97946.96
2022-08-26T19:45:29.267Z,97956.27
2022-08-26T19:52:58.141Z,97962.13
2022-08-26T19:55:30.377Z,97961.62
2022-08-26T19:58:03.976Z,97964.59
2022-08-26T20:00:39.686Z,97969.21
2022-08-26T20:03:15.827Z,97970.25
2022-08-26T20:05:48.959Z,97972.48
2022-08-26T20:08:22.444Z,97972.66
2022-08-26T20:10:54.978Z,97970.51
2022-08-26T20:13:27.174Z,97976.04
2022-08-26T20:15:59.637Z,97976.71
2022-08-26T20:18:49.606Z,97979.40
2022-08-26T20:21:29.840Z,97980.92
2022-08-26T20:24:04.245Z,97982.08
2022-08-26T20:26:38.504Z,97980.55
2022-08-26T20:29:12.827Z,97987.48
2022-08-26T20:31:45.984Z,97988.38
2022-08-26T20:34:19.679Z,97992.55
2022-08-26T20:36:52.657Z,97993.17
2022-08-26T20:39:25.467Z,97998.23
2022-08-26T20:41:58.593Z,97999.42
2022-08-26T20:44:31.952Z,97997.98
2022-08-26T20:47:04.528Z,97995.61
2022-08-26T20:49:37.304Z,97998.66
2022-08-26T20:52:11.032Z,97995.22
2022-08-26T20:54:43.508Z,97998.54
2022-08-26T20:57:15.749Z,97997.91
2022-08-26T20:59:47.874Z,97998.08
2022-08-26T21:02:20.939Z,97999.59
2022-08-26T21:04:53.702Z,98002.58
2022-08-26T21:07:26.415Z,97998.84
2022-08-26T21:09:58.783Z,98000.33
2022-08-26T21:12:33.539Z,98005.37
2022-08-26T21:15:06.267Z,98002.80
2022-08-26T21:17:38.697Z,98005.64
2022-08-26T21:20:11.746Z,98000.02
2022-08-26T21:22:45.783Z,97997.79
2022-08-26T21:25:18.062Z,97999.27
2022-08-26T21:27:50.300Z,97997.45
2022-08-26T21:30:23.746Z,97993.40
2022-08-26T21:32:56.513Z,97991.54
2022-08-26T21:35:29.014Z,97989.16
2022-08-26T21:38:01.207Z,97989.28
2022-08-26T21:40:33.355Z,97984.08
2022-08-26T21:43:05.549Z,97984.15
2022-08-26T21:45:42.174Z,97983.10
2022-08-26T21:48:14.339Z,97975.48
2022-08-26T21:50:46.855Z,97980.63
2022-08-26T21:53:19.513Z,97978.80
2022-08-26T21:55:51.834Z,97982.50
2022-08-26T21:58:24.324Z,97979.21
2022-08-26T22:00:56.710Z,97980.15
2022-08-26T22:03:29.067Z,97979.16
2022-08-26T22:06:03.551Z,97983.70
2022-08-26T22:08:38.197Z,97982.57
2022-08-26T22:11:10.907Z,97973.90
2022-08-26T22:13:44.399Z,97974.14
2022-08-26T22:16:17.382Z,97976.00
2022-08-26T22:18:49.643Z,97978.05
2022-08-26T22:21:24.810Z,97978.78
2022-08-26T22:23:58.193Z,97975.11
2022-08-26T22:26:33.944Z,97974.45
2022-08-26T22:29:08.099Z,97970.87
2022-08-26T22:31:40.552Z,97965.07
2022-08-26T22:34:17.271Z,97970.73
2022-08-26T22:36:51.246Z,97971.10
2022-08-26T22:39:25.553Z,97968.80
2022-08-26T22:41:58.003Z,97967.16
2022-08-26T22:44:30.313Z,97964.00
2022-08-26T22:47:05.570Z,97960.56
2022-08-26T22:49:38.636Z,97953.79
2022-08-26T22:52:10.806Z,97954.82
2022-08-26T22:54:43.047Z,97951.77
2022-08-26T22:57:15.194Z,97948.20
2022-08-26T22:59:47.745Z,97946.58
2022-08-26T23:02:19.948Z,97944.40
2022-08-26T23:04:52.404Z,97939.42
2022-08-26T23:07:24.869Z,97942.42
2022-08-26T23:09:57.072Z,97944.41
2022-08-26T23:12:29.334Z,97941.16
2022-08-26T23:15:02.388Z,97939.65
2022-08-26T23:17:36.762Z,97934.73
2022-08-26T23:20:12.821Z,97929.14
2022-08-26T23:22:45.510Z,97925.06
2022-08-26T23:25:17.577Z,97922.89
2022-08-26T23:27:50.334Z,97921.02
2022-08-26T23:30:25.888Z,97926.23
2022-08-26T23:32:59.303Z,97927.79
2022-08-26T23:35:31.589Z,97925.11
2022-08-26T23:38:05.831Z,97928.07
2022-08-26T23:40:39.429Z,97924.77
2022-08-26T23:43:12.630Z,97924.03
2022-08-26T23:45:44.843Z,97918.06
2022-08-26T23:48:19.855Z,97916.79
2022-08-26T23:51:09.544Z,97914.77
2022-08-26T23:53:42.493Z,97916.48
2022-08-26T23:56:18.485Z,97917.52
2022-08-26T23:58:50.889Z,97915.13
